English Harbour East, Canada
Current Conditions -  °F | °C
As of 9:00 AM on Tuesday 21 Oct 2014 (Local Time) from LFVP Reporting Station
Broken Clouds Broken Clouds  
Wind Chill: 41°   Ceiling: 4600
Heat Index: 48°   Visibility: 6mi
Dew Point: 37°   Wind: 23mph
Humidity: 66%   Direction: 260°W
Pressure: 30"   Gusts: NA
Location:  47.65°N, 54.93°W
Report Text: LFVP 211100Z 26020KT 9999 BKN046 09/03 Q1016 NOSIG
Loading
Personal Weather Stations






























Interactive Weather Map New forecast layout! Learn more

10-Day Weather Forecast

Advertisements
Track Severe Weather on mobile